createdAt,value
2022-08-19T00:00:52.262Z,89.05
2022-08-19T00:01:53.225Z,88.65
2022-08-19T00:02:52.432Z,88.75
2022-08-19T00:03:52.196Z,88.65
2022-08-19T00:04:52.238Z,88.20
2022-08-19T00:05:52.153Z,87.90
2022-08-19T00:06:52.111Z,87.70
2022-08-19T00:07:52.106Z,87.60
2022-08-19T00:08:52.092Z,87.40
2022-08-19T00:09:52.108Z,87.90
2022-08-19T00:10:52.080Z,87.80
2022-08-19T00:11:52.080Z,87.80
2022-08-19T00:12:52.250Z,87.49
2022-08-19T00:13:52.032Z,87.49
2022-08-19T00:14:52.012Z,87.40
2022-08-19T00:15:52.028Z,87.80
2022-08-19T00:16:51.983Z,87.90
2022-08-19T00:17:51.972Z,87.19
2022-08-19T00:18:52.040Z,87.29
2022-08-19T00:19:51.940Z,87.49
2022-08-19T00:20:51.952Z,87.60
2022-08-19T00:21:51.920Z,87.80
2022-08-19T00:22:51.991Z,87.49
2022-08-19T00:23:51.895Z,87.35
2022-08-19T00:24:51.877Z,87.45
2022-08-19T00:25:51.891Z,87.45
2022-08-19T00:26:51.848Z,87.45
2022-08-19T00:27:51.859Z,87.35
2022-08-19T00:28:51.827Z,87.35
2022-08-19T00:29:52.453Z,87.25
2022-08-19T00:30:51.787Z,87.25
2022-08-19T00:31:51.783Z,87.25
2022-08-19T00:32:52.035Z,87.25
2022-08-19T00:33:51.942Z,87.35
2022-08-19T00:34:51.748Z,86.85
2022-08-19T00:35:53.917Z,86.55
2022-08-19T00:36:51.729Z,87.55
2022-08-19T00:37:51.724Z,87.55
2022-08-19T00:38:51.691Z,88.26
2022-08-19T00:39:51.710Z,88.50
2022-08-19T00:40:51.671Z,88.81
2022-08-19T00:41:51.643Z,89.21
2022-08-19T00:42:51.808Z,89.01
2022-08-19T00:43:51.614Z,89.41
2022-08-19T00:44:51.628Z,89.55
2022-08-19T00:45:51.596Z,89.55
2022-08-19T00:46:55.497Z,89.45
2022-08-19T00:47:51.586Z,89.55
2022-08-19T00:48:51.584Z,89.45
2022-08-19T00:49:51.616Z,89.11
2022-08-19T00:50:52.321Z,88.90
2022-08-19T00:51:51.517Z,88.81
2022-08-19T00:52:51.636Z,88.70
2022-08-19T00:53:51.487Z,88.90
2022-08-19T00:54:52.739Z,88.60
2022-08-19T00:55:51.571Z,88.60
2022-08-19T00:56:51.451Z,88.66
2022-08-19T00:57:51.439Z,88.46
2022-08-19T00:58:51.419Z,88.36
2022-08-19T01:00:00.880Z,88.26
2022-08-19T01:00:51.396Z,87.85
2022-08-19T01:01:51.422Z,87.96
2022-08-19T01:02:51.522Z,87.85
2022-08-19T01:03:57.673Z,88.36
2022-08-19T01:04:51.368Z,88.66
2022-08-19T01:05:51.329Z,88.66
2022-08-19T01:06:51.311Z,88.76
2022-08-19T01:07:51.307Z,88.36
2022-08-19T01:08:51.290Z,88.26
2022-08-19T01:09:51.288Z,88.36
2022-08-19T01:10:51.259Z,87.85
2022-08-19T01:11:51.256Z,88.46
2022-08-19T01:12:51.302Z,88.56
2022-08-19T01:13:51.262Z,88.46
2022-08-19T01:14:51.208Z,88.56
2022-08-19T01:15:51.191Z,88.66
2022-08-19T01:16:51.180Z,88.36
2022-08-19T01:17:51.161Z,87.85
2022-08-19T01:18:51.206Z,87.85
2022-08-19T01:19:51.159Z,87.55
2022-08-19T01:20:51.118Z,87.55
2022-08-19T01:21:51.110Z,87.45
2022-08-19T01:22:51.294Z,87.65
2022-08-19T01:23:51.082Z,87.55
2022-08-19T01:24:51.098Z,87.76
2022-08-19T01:25:51.145Z,87.65
2022-08-19T01:26:51.047Z,87.65
2022-08-19T01:27:53.405Z,87.96
2022-08-19T01:28:51.057Z,88.06
2022-08-19T01:29:51.017Z,87.96
2022-08-19T01:30:51.328Z,87.96
2022-08-19T01:31:50.998Z,88.06
2022-08-19T01:32:50.980Z,87.96
2022-08-19T01:33:50.952Z,88.06
2022-08-19T01:34:50.941Z,88.16
2022-08-19T01:35:50.937Z,88.96
2022-08-19T01:36:50.913Z,89.37
2022-08-19T01:37:50.921Z,89.41
2022-08-19T01:38:50.911Z,89.21
2022-08-19T01:39:50.886Z,88.81
2022-08-19T01:40:50.851Z,89.01
2022-08-19T01:41:50.832Z,88.86
2022-08-19T01:42:50.861Z,89.17
2022-08-19T01:44:03.847Z,88.66
2022-08-19T01:44:50.830Z,88.56
2022-08-19T01:45:50.860Z,88.66
2022-08-19T01:46:50.779Z,88.76
2022-08-19T01:47:52.688Z,88.66
2022-08-19T01:48:50.771Z,88.86
2022-08-19T01:49:50.746Z,88.76
2022-08-19T01:50:50.716Z,88.66
2022-08-19T01:51:50.708Z,88.56
2022-08-19T01:53:02.344Z,88.46
2022-08-19T01:53:50.687Z,88.46
2022-08-19T01:54:50.692Z,88.46
2022-08-19T01:55:50.659Z,88.26
2022-08-19T01:56:50.645Z,88.26
2022-08-19T01:57:50.630Z,88.16
2022-08-19T01:58:50.613Z,88.02
2022-08-19T01:59:50.629Z,88.02
2022-08-19T02:00:50.643Z,87.62
2022-08-19T02:01:50.661Z,87.82
2022-08-19T02:02:50.596Z,88.16
2022-08-19T02:03:50.549Z,87.85
2022-08-19T02:04:50.553Z,87.45
2022-08-19T02:05:50.537Z,87.85
2022-08-19T02:06:50.536Z,87.55
2022-08-19T02:07:50.489Z,87.45
2022-08-19T02:08:50.483Z,87.25
2022-08-19T02:09:50.458Z,87.25
2022-08-19T02:10:50.492Z,87.25
2022-08-19T02:11:50.458Z,87.15
2022-08-19T02:12:50.472Z,87.76
2022-08-19T02:13:50.448Z,87.65
2022-08-19T02:14:50.422Z,87.55
2022-08-19T02:15:50.407Z,87.45
2022-08-19T02:16:50.412Z,87.35
2022-08-19T02:17:50.371Z,87.85
2022-08-19T02:18:50.344Z,87.76
2022-08-19T02:19:50.321Z,87.96
2022-08-19T02:20:50.341Z,87.96
2022-08-19T02:21:50.326Z,88.26
2022-08-19T02:22:50.291Z,88.26
2022-08-19T02:23:50.276Z,88.06
2022-08-19T02:24:50.265Z,88.06
2022-08-19T02:25:50.261Z,87.76
2022-08-19T02:26:50.264Z,88.06
2022-08-19T02:27:50.215Z,88.26
2022-08-19T02:28:50.206Z,88.36
2022-08-19T02:29:50.196Z,88.66
2022-08-19T02:30:50.186Z,88.56
2022-08-19T02:31:50.201Z,88.76
2022-08-19T02:32:50.187Z,88.46
2022-08-19T02:33:50.149Z,88.66
2022-08-19T02:34:50.130Z,89.06
2022-08-19T02:35:50.116Z,89.06
2022-08-19T02:36:51.785Z,89.37
2022-08-19T02:37:50.114Z,89.47
2022-08-19T02:38:55.041Z,89.77
2022-08-19T02:39:50.171Z,89.57
2022-08-19T02:40:50.065Z,89.37
2022-08-19T02:41:50.046Z,88.96
2022-08-19T02:42:50.052Z,89.17
2022-08-19T02:44:22.864Z,89.37
2022-08-19T02:44:50.000Z,89.26
2022-08-19T02:45:49.989Z,89.26
2022-08-19T02:46:49.977Z,89.17
2022-08-19T02:47:49.985Z,88.86
2022-08-19T02:48:49.979Z,88.96
2022-08-19T02:49:49.949Z,88.76
2022-08-19T02:50:51.839Z,88.96
2022-08-19T02:51:49.913Z,89.06
2022-08-19T02:52:49.885Z,88.66
2022-08-19T02:53:49.902Z,88.46
2022-08-19T02:54:49.867Z,88.66
2022-08-19T02:55:49.851Z,88.26
2022-08-19T02:56:49.841Z,88.56
2022-08-19T02:57:49.829Z,88.36
2022-08-19T02:58:49.875Z,88.36
2022-08-19T02:59:49.799Z,88.46
2022-08-19T03:00:49.799Z,88.46
2022-08-19T03:01:49.769Z,88.52
2022-08-19T03:02:49.935Z,88.42
2022-08-19T03:03:49.792Z,87.82
2022-08-19T03:04:49.735Z,87.51
2022-08-19T03:05:56.023Z,87.51
2022-08-19T03:06:49.711Z,87.21
2022-08-19T03:07:49.691Z,87.62
2022-08-19T03:08:49.697Z,87.71
2022-08-19T03:09:49.657Z,88.02
2022-08-19T03:10:49.669Z,88.12
2022-08-19T03:11:52.698Z,88.22
2022-08-19T03:12:49.646Z,88.02
2022-08-19T03:13:49.641Z,87.82
2022-08-19T03:14:49.600Z,87.62
2022-08-19T03:15:49.581Z,87.92
2022-08-19T03:16:49.603Z,87.71
2022-08-19T03:17:49.552Z,87.71
2022-08-19T03:18:49.589Z,87.62
2022-08-19T03:19:49.558Z,88.06
2022-08-19T03:20:49.528Z,88.16
2022-08-19T03:21:49.498Z,88.46
2022-08-19T03:22:49.481Z,88.36
2022-08-19T03:23:49.472Z,88.06
2022-08-19T03:24:49.491Z,87.65
2022-08-19T03:26:03.054Z,88.12
2022-08-19T03:26:49.479Z,88.06
2022-08-19T03:27:49.419Z,88.16
2022-08-19T03:28:51.726Z,88.32
2022-08-19T03:29:49.465Z,88.26
2022-08-19T03:30:49.386Z,88.46
2022-08-19T03:31:52.616Z,88.26
2022-08-19T03:32:52.964Z,87.92
2022-08-19T03:33:49.364Z,88.12
2022-08-19T03:34:49.333Z,88.52
2022-08-19T03:35:49.316Z,88.32
2022-08-19T03:36:49.342Z,88.02
2022-08-19T03:37:49.281Z,87.92
2022-08-19T03:38:49.279Z,88.02
2022-08-19T03:39:49.380Z,87.62
2022-08-19T03:40:49.248Z,88.32
2022-08-19T03:41:49.242Z,88.42
2022-08-19T03:42:49.695Z,88.22
2022-08-19T03:43:49.204Z,88.32
2022-08-19T03:44:49.202Z,88.32
2022-08-19T03:45:49.181Z,88.12
2022-08-19T03:46:49.213Z,88.22
2022-08-19T03:47:49.154Z,88.12
2022-08-19T03:48:49.163Z,88.12
2022-08-19T03:49:49.127Z,88.06
2022-08-19T03:50:49.110Z,88.16
2022-08-19T03:51:49.143Z,88.16
2022-08-19T03:52:49.154Z,88.46
2022-08-19T03:53:49.077Z,88.16
2022-08-19T03:54:49.081Z,88.16
2022-08-19T03:55:49.122Z,88.66
2022-08-19T03:56:49.044Z,89.06
2022-08-19T03:57:49.083Z,88.76
2022-08-19T03:58:49.019Z,88.86
2022-08-19T03:59:49.007Z,89.37
2022-08-19T04:00:49.012Z,89.32
2022-08-19T04:01:48.964Z,89.37
2022-08-19T04:02:58.393Z,89.47
2022-08-19T04:03:48.955Z,89.26
2022-08-19T04:04:48.937Z,88.96
2022-08-19T04:05:48.925Z,89.06
2022-08-19T04:06:48.940Z,89.67
2022-08-19T04:07:48.936Z,89.97
2022-08-19T04:08:48.885Z,89.97
2022-08-19T04:09:48.864Z,90.07
2022-08-19T04:10:48.876Z,89.77
2022-08-19T04:11:48.840Z,90.07
2022-08-19T04:12:48.899Z,89.47
2022-08-19T04:13:48.819Z,89.47
2022-08-19T04:14:48.819Z,89.47
2022-08-19T04:15:48.795Z,89.47
2022-08-19T04:16:48.777Z,89.57
2022-08-19T04:17:48.783Z,89.57
2022-08-19T04:18:48.795Z,89.37
2022-08-19T04:19:48.754Z,89.87
2022-08-19T04:20:48.742Z,89.77
2022-08-19T04:21:48.701Z,89.87
2022-08-19T04:22:48.691Z,89.77
2022-08-19T04:23:48.678Z,90.28
2022-08-19T04:24:48.695Z,90.17
2022-08-19T04:25:48.667Z,89.97
2022-08-19T04:26:48.637Z,90.28
2022-08-19T04:27:48.625Z,89.97
2022-08-19T04:28:48.638Z,89.87
2022-08-19T04:29:48.620Z,90.17
2022-08-19T04:30:48.602Z,90.37
2022-08-19T04:31:48.561Z,90.48
2022-08-19T04:32:48.593Z,90.78
2022-08-19T04:33:48.548Z,90.98
2022-08-19T04:35:03.251Z,91.33
2022-08-19T04:35:48.619Z,91.02
2022-08-19T04:36:48.526Z,91.02
2022-08-19T04:37:48.486Z,90.82
2022-08-19T04:38:48.483Z,90.92
2022-08-19T04:39:48.595Z,91.02
2022-08-19T04:40:48.483Z,91.13
2022-08-19T04:41:48.449Z,91.13
2022-08-19T04:42:48.453Z,91.22
2022-08-19T04:43:48.411Z,91.22
2022-08-19T04:44:48.404Z,91.13
2022-08-19T04:45:48.388Z,91.13
2022-08-19T04:46:51.239Z,91.13
2022-08-19T04:47:58.275Z,91.02
2022-08-19T04:48:49.505Z,90.98
2022-08-19T04:49:48.335Z,91.49
2022-08-19T04:50:48.322Z,92.09
2022-08-19T04:51:48.325Z,91.78
2022-08-19T04:52:48.284Z,91.99
2022-08-19T04:53:48.281Z,91.89
2022-08-19T04:54:48.281Z,91.69
2022-08-19T04:55:48.252Z,91.38
2022-08-19T04:56:48.237Z,91.38
2022-08-19T04:57:48.253Z,91.69
2022-08-19T04:58:48.223Z,91.69
2022-08-19T04:59:48.215Z,91.78
2022-08-19T05:00:48.280Z,91.78
2022-08-19T05:01:48.177Z,91.78
2022-08-19T05:02:48.158Z,91.89
2022-08-19T05:03:48.169Z,92.29
2022-08-19T05:04:48.144Z,92.83
2022-08-19T05:05:48.121Z,92.79
2022-08-19T05:06:48.099Z,92.39
2022-08-19T05:07:48.116Z,92.19
2022-08-19T05:08:48.084Z,92.19
2022-08-19T05:09:57.882Z,92.19
2022-08-19T05:10:48.062Z,92.49
2022-08-19T05:11:48.080Z,92.79
2022-08-19T05:12:48.042Z,92.79
2022-08-19T05:13:48.021Z,92.69
2022-08-19T05:14:48.005Z,92.90
2022-08-19T05:15:47.985Z,92.90
2022-08-19T05:16:47.964Z,92.59
2022-08-19T05:17:47.994Z,92.29
2022-08-19T05:18:47.947Z,92.29
2022-08-19T05:19:47.933Z,91.89
2022-08-19T05:20:47.913Z,92.59
2022-08-19T05:21:47.899Z,92.19
2022-08-19T05:22:48.005Z,91.89
2022-08-19T05:23:47.885Z,92.59
2022-08-19T05:25:11.241Z,92.59
2022-08-19T05:25:47.859Z,92.19
2022-08-19T05:26:47.830Z,92.19
2022-08-19T05:27:47.861Z,92.19
2022-08-19T05:28:49.540Z,92.49
2022-08-19T05:29:47.806Z,92.69
2022-08-19T05:30:47.844Z,92.90
2022-08-19T05:31:47.772Z,92.69
2022-08-19T05:32:47.818Z,92.90
2022-08-19T05:33:47.769Z,92.79
2022-08-19T05:34:47.733Z,92.39
2022-08-19T05:35:47.716Z,92.29
2022-08-19T05:36:47.701Z,92.90
2022-08-19T05:37:47.695Z,93.19
2022-08-19T05:38:47.709Z,93.50
2022-08-19T05:39:51.379Z,92.99
2022-08-19T05:41:04.860Z,92.79
2022-08-19T05:41:47.640Z,92.69
2022-08-19T05:42:47.645Z,92.99
2022-08-19T05:43:47.612Z,93.10
2022-08-19T05:44:47.619Z,92.99
2022-08-19T05:45:47.631Z,92.90
2022-08-19T05:46:47.576Z,92.90
2022-08-19T05:47:47.562Z,92.65
2022-08-19T05:48:47.541Z,92.65
2022-08-19T05:49:47.554Z,92.75
2022-08-19T05:50:47.542Z,92.85
2022-08-19T05:51:47.503Z,92.95
2022-08-19T05:52:50.210Z,93.26
2022-08-19T05:53:47.498Z,93.26
2022-08-19T05:54:47.475Z,93.46
2022-08-19T05:55:47.482Z,93.05
2022-08-19T05:56:47.441Z,92.75
2022-08-19T05:57:47.424Z,92.55
2022-08-19T05:58:47.421Z,92.14
2022-08-19T05:59:47.408Z,92.55
2022-08-19T06:00:47.380Z,92.71
2022-08-19T06:01:47.402Z,92.40
2022-08-19T06:02:47.460Z,91.70
2022-08-19T06:03:47.353Z,92.00
2022-08-19T06:04:47.354Z,92.50
2022-08-19T06:05:51.480Z,92.30
2022-08-19T06:06:47.327Z,92.20
2022-08-19T06:07:47.509Z,92.10
2022-08-19T06:08:47.317Z,92.71
2022-08-19T06:09:56.003Z,92.71
2022-08-19T06:10:47.257Z,92.80
2022-08-19T06:11:47.266Z,92.40
2022-08-19T06:12:47.268Z,92.40
2022-08-19T06:13:47.203Z,92.50
2022-08-19T06:14:47.201Z,92.30
2022-08-19T06:15:47.201Z,92.35
2022-08-19T06:16:47.175Z,92.55
2022-08-19T06:17:47.256Z,92.45
2022-08-19T06:18:47.151Z,92.25
2022-08-19T06:19:47.145Z,92.05
2022-08-19T06:21:00.256Z,92.45
2022-08-19T06:21:47.116Z,92.65
2022-08-19T06:22:47.133Z,92.35
2022-08-19T06:23:47.075Z,92.14
2022-08-19T06:24:47.079Z,92.25
2022-08-19T06:25:47.056Z,92.40
2022-08-19T06:28:14.160Z,92.30
2022-08-19T06:28:47.012Z,92.71
2022-08-19T06:29:47.003Z,92.80
2022-08-19T06:30:47.012Z,92.60
2022-08-19T06:31:46.973Z,92.60
2022-08-19T06:32:47.158Z,92.60
2022-08-19T06:33:47.021Z,92.60
2022-08-19T06:34:46.965Z,92.76
2022-08-19T06:35:47.006Z,93.27
2022-08-19T06:36:46.905Z,93.16
2022-08-19T06:37:46.960Z,92.86
2022-08-19T06:38:46.879Z,92.46
2022-08-19T06:39:47.040Z,92.26
2022-08-19T06:40:46.874Z,92.06
2022-08-19T06:41:51.185Z,92.36
2022-08-19T06:42:54.978Z,92.06
2022-08-19T06:43:46.863Z,92.06
2022-08-19T06:44:48.275Z,91.96
2022-08-19T06:45:46.811Z,91.46
2022-08-19T06:46:46.777Z,90.95
2022-08-19T06:47:46.815Z,90.45
2022-08-19T06:48:46.746Z,90.05
2022-08-19T06:49:46.789Z,90.05
2022-08-19T06:50:46.809Z,90.15
2022-08-19T06:51:46.735Z,89.64
2022-08-19T06:52:46.781Z,88.94
2022-08-19T06:53:46.752Z,89.54
2022-08-19T06:54:56.493Z,89.75
2022-08-19T06:55:46.689Z,89.70
2022-08-19T06:56:46.647Z,89.90
2022-08-19T06:57:46.672Z,90.00
2022-08-19T06:58:46.613Z,89.70
2022-08-19T06:59:46.627Z,88.79
2022-08-19T07:00:46.605Z,88.90
2022-08-19T07:01:46.605Z,88.70
2022-08-19T07:02:52.131Z,88.59
2022-08-19T07:03:46.580Z,88.29
2022-08-19T07:04:46.567Z,88.39
2022-08-19T07:05:47.268Z,87.69
2022-08-19T07:06:46.507Z,87.39
2022-08-19T07:07:47.670Z,87.49
2022-08-19T07:08:46.542Z,87.79
2022-08-19T07:09:58.281Z,86.99
2022-08-19T07:10:46.495Z,86.58
2022-08-19T07:11:46.436Z,87.69
2022-08-19T07:12:46.439Z,85.78
2022-08-19T07:13:46.443Z,86.18
2022-08-19T07:14:46.471Z,86.68
2022-08-19T07:15:46.443Z,85.88
2022-08-19T07:16:46.367Z,85.48
2022-08-19T07:17:48.007Z,85.28
2022-08-19T07:18:46.391Z,85.38
2022-08-19T07:19:46.395Z,85.58
2022-08-19T07:20:46.324Z,86.08
2022-08-19T07:21:46.315Z,85.98
2022-08-19T07:22:46.290Z,86.28
2022-08-19T07:23:46.307Z,86.68
2022-08-19T07:24:51.503Z,85.78
2022-08-19T07:25:53.026Z,85.28
2022-08-19T07:26:46.252Z,84.94
2022-08-19T07:27:46.544Z,85.33
2022-08-19T07:28:51.537Z,85.44
2022-08-19T07:29:46.208Z,85.03
2022-08-19T07:30:46.212Z,85.44
2022-08-19T07:31:46.195Z,85.39
2022-08-19T07:32:46.155Z,86.00
2022-08-19T07:33:46.149Z,85.80
2022-08-19T07:34:46.137Z,85.50
2022-08-19T07:35:46.137Z,84.69
2022-08-19T07:36:46.137Z,84.75
2022-08-19T07:37:46.150Z,84.35
2022-08-19T07:38:46.145Z,84.35
2022-08-19T07:39:46.116Z,85.36
2022-08-19T07:40:46.066Z,85.25
2022-08-19T07:41:46.067Z,85.25
2022-08-19T07:42:46.067Z,84.85
2022-08-19T07:43:46.025Z,84.55
2022-08-19T07:44:50.449Z,84.75
2022-08-19T07:45:46.019Z,84.55
2022-08-19T07:46:47.315Z,83.71
2022-08-19T07:47:48.735Z,84.21
2022-08-19T07:48:45.945Z,83.51
2022-08-19T07:49:45.930Z,84.51
2022-08-19T07:50:45.933Z,83.71
2022-08-19T07:51:45.902Z,83.71
2022-08-19T07:52:48.882Z,84.07
2022-08-19T07:53:45.878Z,83.87
2022-08-19T07:54:45.891Z,83.37
2022-08-19T07:55:45.867Z,83.97
2022-08-19T07:56:45.859Z,83.33
2022-08-19T07:57:45.877Z,84.03
2022-08-19T07:58:45.853Z,82.93
2022-08-19T07:59:45.788Z,82.63
2022-08-19T08:00:45.799Z,82.12
2022-08-19T08:01:45.782Z,81.73
2022-08-19T08:02:45.793Z,81.68
2022-08-19T08:03:45.752Z,81.79
2022-08-19T08:04:45.742Z,81.99
2022-08-19T08:05:45.753Z,81.48
2022-08-19T08:06:45.721Z,81.59
2022-08-19T08:07:46.301Z,80.88
2022-08-19T08:08:48.242Z,80.88
2022-08-19T08:09:46.528Z,80.79
2022-08-19T08:10:45.652Z,81.38
2022-08-19T08:11:45.670Z,81.59
2022-08-19T08:12:45.623Z,81.99
2022-08-19T08:13:45.615Z,81.55
2022-08-19T08:14:45.598Z,82.35
2022-08-19T08:15:45.584Z,81.45
2022-08-19T08:16:47.107Z,81.15
2022-08-19T08:17:49.491Z,80.30
2022-08-19T08:18:50.568Z,79.71
2022-08-19T08:19:45.542Z,80.71
2022-08-19T08:20:45.524Z,79.71
2022-08-19T08:21:45.531Z,80.11
2022-08-19T08:22:45.497Z,78.77
2022-08-19T08:23:45.504Z,79.36
2022-08-19T08:24:45.496Z,78.36
2022-08-19T08:25:45.470Z,79.57
2022-08-19T08:26:46.867Z,79.57
2022-08-19T08:27:45.428Z,78.67
2022-08-19T08:28:47.809Z,77.83
2022-08-19T08:29:45.434Z,77.83
2022-08-19T08:30:45.442Z,77.83
2022-08-19T08:31:45.382Z,77.33
2022-08-19T08:32:45.378Z,77.26
2022-08-19T08:33:45.368Z,76.97
2022-08-19T08:34:45.360Z,76.46
2022-08-19T08:35:45.371Z,77.67
2022-08-19T08:36:45.300Z,77.56
2022-08-19T08:37:45.296Z,78.17
2022-08-19T08:38:45.308Z,77.97
2022-08-19T08:39:45.384Z,78.36
2022-08-19T08:40:45.265Z,77.83
2022-08-19T08:41:45.247Z,77.73
2022-08-19T08:42:45.238Z,77.53
2022-08-19T08:43:45.331Z,77.93
2022-08-19T08:44:45.370Z,77.63
2022-08-19T08:45:45.242Z,77.53
2022-08-19T08:46:45.180Z,77.53
2022-08-19T08:47:45.218Z,76.83
2022-08-19T08:48:45.154Z,77.26
2022-08-19T08:49:45.155Z,77.26
2022-08-19T08:50:45.122Z,77.47
2022-08-19T08:51:45.169Z,78.27
2022-08-19T08:52:45.105Z,77.67
2022-08-19T08:53:45.105Z,78.43
2022-08-19T08:54:48.823Z,77.93
2022-08-19T08:55:45.101Z,78.23
2022-08-19T08:56:45.130Z,79.03
2022-08-19T08:57:45.067Z,78.53
2022-08-19T08:58:45.082Z,77.73
2022-08-19T08:59:45.048Z,77.53
2022-08-19T09:00:45.039Z,78.13
2022-08-19T09:01:45.025Z,77.63
2022-08-19T09:02:44.986Z,77.13
2022-08-19T09:03:44.954Z,77.49
2022-08-19T09:04:44.961Z,77.69
2022-08-19T09:05:48.604Z,77.09
2022-08-19T09:06:44.914Z,77.39
2022-08-19T09:07:47.428Z,77.59
2022-08-19T09:08:44.915Z,77.66
2022-08-19T09:09:44.918Z,76.76
2022-08-19T09:10:45.161Z,76.35
2022-08-19T09:11:44.902Z,75.76
2022-08-19T09:12:44.839Z,76.56
2022-08-19T09:13:44.838Z,75.46
2022-08-19T09:14:50.676Z,75.56
2022-08-19T09:15:44.796Z,76.72
2022-08-19T09:16:44.777Z,76.02
2022-08-19T09:17:44.799Z,75.72
2022-08-19T09:18:44.765Z,77.12
2022-08-19T09:19:44.754Z,77.02
2022-08-19T09:20:44.740Z,76.38
2022-08-19T09:21:44.728Z,77.04
2022-08-19T09:22:44.732Z,74.65
2022-08-19T09:23:44.729Z,74.25
2022-08-19T09:24:44.703Z,74.11
2022-08-19T09:25:44.667Z,74.11
2022-08-19T09:26:48.337Z,72.19
2022-08-19T09:27:44.665Z,72.78
2022-08-19T09:28:44.646Z,72.68
2022-08-19T09:29:44.676Z,73.14
2022-08-19T09:30:44.620Z,73.14
2022-08-19T09:31:44.583Z,71.45
2022-08-19T09:32:44.563Z,72.05
2022-08-19T09:33:44.558Z,71.35
2022-08-19T09:34:46.755Z,71.65
2022-08-19T09:35:53.094Z,71.55
2022-08-19T09:36:44.522Z,70.75
2022-08-19T09:37:44.500Z,71.15
2022-08-19T09:38:44.528Z,71.29
2022-08-19T09:39:44.555Z,72.19
2022-08-19T09:40:44.504Z,72.19
2022-08-19T09:41:47.511Z,72.88
2022-08-19T09:42:50.050Z,71.89
2022-08-19T09:43:47.864Z,71.69
2022-08-19T09:44:44.423Z,72.08
2022-08-19T09:45:44.391Z,71.48
2022-08-19T09:46:44.416Z,71.69
2022-08-19T09:47:44.388Z,71.48
2022-08-19T09:48:44.351Z,71.42
2022-08-19T09:49:44.332Z,71.92
2022-08-19T09:50:51.761Z,71.72
2022-08-19T09:51:46.860Z,72.32
2022-08-19T09:52:53.897Z,72.62
2022-08-19T09:53:44.313Z,71.92
2022-08-19T09:54:44.331Z,72.62
2022-08-19T09:55:44.284Z,72.62
2022-08-19T09:56:44.266Z,72.78
2022-08-19T09:57:44.247Z,72.78
2022-08-19T09:58:44.220Z,72.55
2022-08-19T09:59:44.203Z,71.12
2022-08-19T10:00:44.225Z,71.22
2022-08-19T10:01:44.229Z,70.62
2022-08-19T10:02:44.769Z,70.92
2022-08-19T10:03:44.184Z,71.09
2022-08-19T10:04:44.136Z,70.29
2022-08-19T10:05:44.145Z,70.29
2022-08-19T10:06:46.894Z,70.68
2022-08-19T10:07:44.091Z,70.65
2022-08-19T10:08:49.949Z,71.55
2022-08-19T10:09:44.072Z,69.92
2022-08-19T10:10:44.108Z,70.03
2022-08-19T10:11:52.551Z,69.49
2022-08-19T10:12:44.061Z,69.59
2022-08-19T10:13:44.013Z,69.85
2022-08-19T10:14:44.005Z,67.87
2022-08-19T10:15:47.333Z,67.24
2022-08-19T10:16:44.048Z,67.34
2022-08-19T10:17:48.226Z,66.85
2022-08-19T10:18:44.214Z,67.54
2022-08-19T10:19:43.938Z,68.60
2022-08-19T10:20:43.945Z,67.97
2022-08-19T10:21:43.931Z,66.55
2022-08-19T10:22:43.900Z,63.97
2022-08-19T10:23:43.882Z,63.48
2022-08-19T10:24:43.867Z,63.08
2022-08-19T10:25:43.862Z,62.68
2022-08-19T10:26:43.864Z,62.98
2022-08-19T10:27:48.227Z,63.57
2022-08-19T10:28:43.860Z,63.05
2022-08-19T10:29:46.388Z,63.34
2022-08-19T10:30:43.790Z,63.74
2022-08-19T10:31:59.983Z,62.62
2022-08-19T10:32:46.489Z,60.94
2022-08-19T10:33:53.945Z,61.23
2022-08-19T10:34:48.624Z,60.44
2022-08-19T10:35:56.951Z,60.54
2022-08-19T10:36:56.464Z,59.94
2022-08-19T10:37:57.012Z,60.54
2022-08-19T10:38:53.485Z,60.54
2022-08-19T10:39:43.744Z,61.73
2022-08-19T10:40:43.657Z,60.44
2022-08-19T10:41:43.651Z,60.02
2022-08-19T10:42:43.634Z,61.21
2022-08-19T10:43:43.643Z,60.31
2022-08-19T10:44:43.610Z,61.07
2022-08-19T10:45:52.397Z,60.08
2022-08-19T10:46:48.291Z,61.07
2022-08-19T10:47:43.589Z,59.86
2022-08-19T10:48:43.602Z,60.13
2022-08-19T10:49:43.539Z,60.92
2022-08-19T10:50:43.538Z,58.12
2022-08-19T10:51:46.622Z,57.13
2022-08-19T10:52:49.540Z,57.33
2022-08-19T10:53:43.527Z,58.59
2022-08-19T10:54:43.475Z,58.29
2022-08-19T10:55:43.459Z,56.51
2022-08-19T10:56:43.455Z,56.41
2022-08-19T10:58:01.813Z,56.21
2022-08-19T10:58:43.460Z,56.51
2022-08-19T10:59:43.409Z,56.12
2022-08-19T11:00:43.563Z,56.91
2022-08-19T11:01:43.388Z,57.20
2022-08-19T11:02:43.376Z,57.67
2022-08-19T11:03:43.465Z,56.09
2022-08-19T11:04:43.368Z,56.58
2022-08-19T11:05:43.471Z,56.48
2022-08-19T11:06:43.362Z,55.79
2022-08-19T11:07:43.322Z,56.09
2022-08-19T11:08:43.335Z,55.40
2022-08-19T11:09:43.297Z,54.61
2022-08-19T11:10:43.293Z,55.30
2022-08-19T11:11:43.297Z,56.16
2022-08-19T11:12:43.264Z,55.49
2022-08-19T11:13:43.223Z,55.69
2022-08-19T11:14:43.258Z,55.79
2022-08-19T11:15:43.226Z,55.99
2022-08-19T11:16:43.201Z,56.29
2022-08-19T11:17:43.190Z,56.88
2022-08-19T11:18:43.161Z,56.58
2022-08-19T11:19:43.178Z,56.58
2022-08-19T11:20:43.140Z,55.77
2022-08-19T11:21:43.122Z,56.06
2022-08-19T11:22:43.115Z,56.38
2022-08-19T11:23:43.092Z,55.79
2022-08-19T11:24:43.121Z,56.58
2022-08-19T11:25:43.101Z,55.66
2022-08-19T11:26:43.085Z,55.00
2022-08-19T11:27:43.053Z,55.30
2022-08-19T11:28:43.042Z,56.36
2022-08-19T11:29:43.049Z,55.00
2022-08-19T11:30:43.025Z,55.18
2022-08-19T11:31:43.017Z,55.47
2022-08-19T11:32:47.314Z,55.96
2022-08-19T11:33:47.223Z,55.77
2022-08-19T11:34:42.989Z,54.16
2022-08-19T11:35:42.951Z,55.47
2022-08-19T11:36:42.941Z,54.97
2022-08-19T11:37:42.915Z,53.99
2022-08-19T11:38:42.913Z,54.68
2022-08-19T11:39:42.970Z,54.19
2022-08-19T11:40:42.884Z,54.85
2022-08-19T11:41:42.933Z,54.95
2022-08-19T11:42:42.874Z,54.13
2022-08-19T11:43:42.853Z,54.33
2022-08-19T11:44:42.826Z,53.84
2022-08-19T11:45:42.818Z,53.52
2022-08-19T11:46:42.805Z,53.81
2022-08-19T11:47:42.816Z,53.52
2022-08-19T11:48:42.773Z,54.01
2022-08-19T11:49:42.759Z,54.87
2022-08-19T11:50:42.770Z,54.47
2022-08-19T11:51:42.738Z,52.28
2022-08-19T11:52:42.730Z,53.76
2022-08-19T11:53:42.709Z,53.56
2022-08-19T11:54:42.701Z,53.07
2022-08-19T11:55:43.326Z,52.16
2022-08-19T11:56:42.703Z,52.85
2022-08-19T11:57:42.656Z,52.03
2022-08-19T11:58:42.674Z,52.14
2022-08-19T11:59:42.627Z,52.82
2022-08-19T12:00:42.670Z,50.76
2022-08-19T12:01:42.611Z,51.47
2022-08-19T12:02:42.595Z,51.97
2022-08-19T12:03:42.646Z,52.26
2022-08-19T12:04:42.575Z,53.07
2022-08-19T12:05:42.581Z,52.68
2022-08-19T12:06:42.583Z,52.78
2022-08-19T12:07:42.536Z,52.87
2022-08-19T12:08:42.530Z,52.87
2022-08-19T12:09:42.815Z,53.17
2022-08-19T12:10:42.510Z,52.65
2022-08-19T12:11:42.504Z,51.57
2022-08-19T12:12:42.462Z,53.24
2022-08-19T12:13:42.459Z,52.45
2022-08-19T12:14:42.449Z,51.05
2022-08-19T12:15:42.471Z,51.25
2022-08-19T12:16:42.725Z,51.93
2022-08-19T12:17:42.412Z,52.03
2022-08-19T12:18:42.406Z,51.35
2022-08-19T12:19:42.383Z,51.32
2022-08-19T12:20:42.402Z,51.91
2022-08-19T12:21:42.358Z,51.12
2022-08-19T12:22:42.371Z,51.69
2022-08-19T12:23:42.372Z,50.51
2022-08-19T12:24:42.316Z,51.30
2022-08-19T12:25:42.306Z,50.88
2022-08-19T12:26:52.887Z,50.59
2022-08-19T12:27:46.841Z,50.68
2022-08-19T12:28:42.287Z,49.70
2022-08-19T12:29:42.253Z,49.80
2022-08-19T12:30:42.301Z,49.90
2022-08-19T12:31:42.231Z,50.19
2022-08-19T12:32:42.225Z,50.90
2022-08-19T12:33:42.236Z,50.21
2022-08-19T12:34:42.199Z,49.63
2022-08-19T12:35:45.577Z,50.34
2022-08-19T12:36:42.183Z,50.26
2022-08-19T12:37:42.181Z,50.85
2022-08-19T12:38:42.147Z,50.98
2022-08-19T12:39:42.171Z,51.86
2022-08-19T12:40:42.125Z,52.28
2022-08-19T12:41:44.424Z,51.00
2022-08-19T12:42:42.104Z,51.59
2022-08-19T12:43:42.124Z,51.62
2022-08-19T12:44:42.639Z,52.11
2022-08-19T12:45:42.053Z,53.71
2022-08-19T12:46:42.075Z,53.12
2022-08-19T12:47:42.992Z,52.66
2022-08-19T12:48:42.046Z,53.05
2022-08-19T12:49:54.290Z,53.34
2022-08-19T12:50:41.998Z,52.98
2022-08-19T12:51:41.983Z,53.37
2022-08-19T12:52:41.988Z,53.69
2022-08-19T12:53:41.977Z,53.50